Klamath Air Force Station, California
Current Conditions -  °F | °C
As of 10:56 AM on Friday 21 Nov 2014 (Local Time) from KCEC Reporting Station
Moderate Rain Moderate Rain  
Wind Chill: 54°   Ceiling: 3900
Heat Index: 54°   Visibility: 4mi
Dew Point: 51°   Wind: 22mph
Humidity: 90%   Direction: 160°SSE
Pressure: 29.95"   Gusts: NA
Location:  41.6217°N, 123.995°W
Report Text: KCEC 211856Z AUTO 16019KT 4SM RA BR FEW025 BKN039 OVC055 12/11 A2995 RMK AO2 PK WND 16026/1846 SLP142 P0008 T01220106
Loading
Personal Weather Stations






























Interactive Weather Map New forecast layout! Learn more

10-Day Weather Forecast

Advertisements
Track Severe Weather on mobile